Stratton Mountain, Vermont
Current Conditions -  °F | °C
As of 3:54 PM on Friday 31 Oct 2014 (Local Time) from KDDH Reporting Station
Overcast Overcast  
Wind Chill:   Ceiling: 4300
Heat Index:   Visibility: 10mi
Dew Point:   Wind: 7mph
Humidity: 52%   Direction: 130°SE
Pressure: 29.95"   Gusts: NA
Location:  43.11°N, 72.91°W
Report Text: KDDH 311954Z AUTO 13006KT 10SM OVC043 09/00 A2995 RMK AO2 SLP148 T00940000
Loading
Personal Weather Stations






























Interactive Weather Map
Tropical Storm Tracking
New forecast layout! Learn more

10-Day Weather Forecast

Advertisements
Track Severe Weather on mobile